Tasman — ZDKI2 — position and weather

sailwx.info

Track history (hours):
 
Tides and Currents Weather Stations Pressure Air Temp Water Temp Dewpoint Dewpoint Depression Visibility Wind Speed Wind Dir Waves Ship Positions

Tasman

Last reported at 2016-Dec-08 03:33 UTC. Time now 2016-Dec-08 04:13 UTC.
Position N 51°27' E 003°43'.

Length 90 m; draft 4 m.

Type: Ship. MMSI: 23617000.

Date/timePositionNaut miles runAvg speedWind from/ knotsBaromVisibWave heightAir tempDewpointWater temp
2016-Dec-08 03:33N 51°27' E 003°43'0 0.0
2016-Dec-08 02:33N 51°27' E 003°43'0 0.0
2016-Dec-08 01:33N 51°27' E 003°43'0 0.0
2016-Dec-08 00:33N 51°27' E 003°43'0 0.0
2016-Dec-07 23:33N 51°27' E 003°43'0 0.0
2016-Dec-07 22:33N 51°27' E 003°43'0 0.0
2016-Dec-07 21:33N 51°27' E 003°43'0 0.0
2016-Dec-07 20:33N 51°27' E 003°43'0 0.0
2016-Dec-07 19:33N 51°27' E 003°43'0 0.0
2016-Dec-07 18:33N 51°27' E 003°43'0 0.0
2016-Dec-07 17:33N 51°27' E 003°43'0 0.0
2016-Dec-07 16:33N 51°27' E 003°43'0 0.0
2016-Dec-07 15:34N 51°27' E 003°43'0 0.0
2016-Dec-07 14:33N 51°27' E 003°43'0 0.1
2016-Dec-07 13:33N 51°27' E 003°43'0 0.0
2016-Dec-07 12:33N 51°27' E 003°43'4 4.0
2016-Dec-07 11:33N 51°26' E 003°37'1110.6
2016-Dec-07 10:33N 51°24' E 003°20'1111.1
2016-Dec-07 09:33N 51°22' E 003°03'1212.5
2016-Dec-07 08:33N 51°22' E 002°43'7 6.9
2016-Dec-07 07:33N 51°22' E 002°32'1313.1
2016-Dec-07 06:34N 51°16' E 002°13'1514.6
2016-Dec-07 05:34N 51°09' E 001°53'1515.1
2016-Dec-07 04:33N 50°58' E 001°36'3014.3
2016-Dec-07 02:26N 50°35' E 001°04'3712.9
2016-Dec-06 23:34N 50°23' E 000°09'1313.0
2016-Dec-06 22:33N 50°20' W 000°11'1313.1
2016-Dec-06 21:32N 50°16' W 000°31'1212.4
2016-Dec-06 20:33N 50°13' W 000°49'2311.2
2016-Dec-06 18:33N 50°06' W 001°22'1110.6
2016-Dec-06 17:33N 50°03' W 001°38'1110.8
2016-Dec-06 16:33N 49°59' W 001°54'3812.7
2016-Dec-06 13:33N 49°48' W 002°51'2713.7
2016-Dec-06 11:34N 49°35' W 003°27'7013.9
2016-Dec-06 06:33N 49°00' W 004°60'1513.8
2016-Dec-06 05:30N 48°53' W 005°19'1313.5
2016-Dec-06 04:33N 48°46' W 005°36'1313.4
2016-Dec-06 03:33N 48°35' W 005°46'  
2016-Dec-01 21:33N 39°18' W 009°44'1211.7
2016-Dec-01 20:33N 39°06' W 009°47'1111.3
2016-Dec-01 19:33N 38°55' W 009°49'1211.5
2016-Dec-01 18:34N 38°44' W 009°50'1212.3
2016-Dec-01 17:33N 38°31' W 009°47'1312.7
2016-Dec-01 16:34N 38°19' W 009°43'4013.2
2016-Dec-01 13:32N 37°40' W 009°31'  
Track history (hours):
 
Tides and Currents Weather Stations Pressure Air Temp Water Temp Dewpoint Dewpoint Depression Visibility Wind Speed Wind Dir Waves Ship Positions

Tasman

Last reported at 2016-Dec-08 03:33 UTC. Time now 2016-Dec-08 04:13 UTC.
Position N 51°27' E 003°43'.

Length 90 m; draft 4 m.

Type: Ship. MMSI: 23617000.

Date/timePositionNaut miles runAvg speedWind from/ knotsBaromVisibWave heightAir tempDewpointWater temp
2016-Dec-08 03:33N 51°27' E 003°43'0 0.0
2016-Dec-08 02:33N 51°27' E 003°43'0 0.0
2016-Dec-08 01:33N 51°27' E 003°43'0 0.0
2016-Dec-08 00:33N 51°27' E 003°43'0 0.0
2016-Dec-07 23:33N 51°27' E 003°43'0 0.0
2016-Dec-07 22:33N 51°27' E 003°43'0 0.0
2016-Dec-07 21:33N 51°27' E 003°43'0 0.0
2016-Dec-07 20:33N 51°27' E 003°43'0 0.0
2016-Dec-07 19:33N 51°27' E 003°43'0 0.0
2016-Dec-07 18:33N 51°27' E 003°43'0 0.0
2016-Dec-07 17:33N 51°27' E 003°43'0 0.0
2016-Dec-07 16:33N 51°27' E 003°43'0 0.0
2016-Dec-07 15:34N 51°27' E 003°43'0 0.0
2016-Dec-07 14:33N 51°27' E 003°43'0 0.1
2016-Dec-07 13:33N 51°27' E 003°43'0 0.0
2016-Dec-07 12:33N 51°27' E 003°43'4 4.0
2016-Dec-07 11:33N 51°26' E 003°37'1110.6
2016-Dec-07 10:33N 51°24' E 003°20'1111.1
2016-Dec-07 09:33N 51°22' E 003°03'1212.5
2016-Dec-07 08:33N 51°22' E 002°43'7 6.9
2016-Dec-07 07:33N 51°22' E 002°32'1313.1
2016-Dec-07 06:34N 51°16' E 002°13'1514.6
2016-Dec-07 05:34N 51°09' E 001°53'1515.1
2016-Dec-07 04:33N 50°58' E 001°36'3014.3
2016-Dec-07 02:26N 50°35' E 001°04'3712.9
2016-Dec-06 23:34N 50°23' E 000°09'1313.0
2016-Dec-06 22:33N 50°20' W 000°11'1313.1
2016-Dec-06 21:32N 50°16' W 000°31'1212.4
2016-Dec-06 20:33N 50°13' W 000°49'2311.2
2016-Dec-06 18:33N 50°06' W 001°22'1110.6
2016-Dec-06 17:33N 50°03' W 001°38'1110.8
2016-Dec-06 16:33N 49°59' W 001°54'3812.7
2016-Dec-06 13:33N 49°48' W 002°51'2713.7
2016-Dec-06 11:34N 49°35' W 003°27'7013.9
2016-Dec-06 06:33N 49°00' W 004°60'1513.8
2016-Dec-06 05:30N 48°53' W 005°19'1313.5
2016-Dec-06 04:33N 48°46' W 005°36'1313.4
2016-Dec-06 03:33N 48°35' W 005°46'  
2016-Dec-01 21:33N 39°18' W 009°44'1211.7
2016-Dec-01 20:33N 39°06' W 009°47'1111.3
2016-Dec-01 19:33N 38°55' W 009°49'1211.5
2016-Dec-01 18:34N 38°44' W 009°50'1212.3
2016-Dec-01 17:33N 38°31' W 009°47'1312.7
2016-Dec-01 16:34N 38°19' W 009°43'4013.2
2016-Dec-01 13:32N 37°40' W 009°31'  

Dump ship's entire track history